createdAt,value
2022-09-12T00:01:16.656Z,22.3
2022-09-12T00:06:57.192Z,22.3
2022-09-12T00:12:34.888Z,22.3
2022-09-12T00:18:13.140Z,22.3
2022-09-12T00:23:51.804Z,22.3
2022-09-12T00:29:28.286Z,22.3
2022-09-12T00:34:49.944Z,22.3
2022-09-12T00:40:28.689Z,22.2
2022-09-12T00:46:05.269Z,22.2
2022-09-12T00:51:42.149Z,22.3
2022-09-12T00:57:20.461Z,22.2
2022-09-12T01:02:42.202Z,22.2
2022-09-12T01:08:19.371Z,22.2
2022-09-12T01:13:57.131Z,22.2
2022-09-12T01:19:34.209Z,22.2
2022-09-12T01:25:12.049Z,22.2
2022-09-12T01:30:49.328Z,22.2
2022-09-12T01:36:26.395Z,22.2
2022-09-12T01:42:02.982Z,22.2
2022-09-12T01:47:40.865Z,22.2
2022-09-12T01:53:02.819Z,22.1
2022-09-12T01:58:45.255Z,22.1
2022-09-12T02:04:23.131Z,22.2
2022-09-12T02:09:59.921Z,22.1
2022-09-12T02:15:37.328Z,22.1
2022-09-12T02:21:37.085Z,22.1
2022-09-12T02:27:13.884Z,22.1
2022-09-12T02:32:50.804Z,22.1
2022-09-12T02:38:28.759Z,22.1
2022-09-12T02:44:06.435Z,22.1
2022-09-12T02:49:43.729Z,22.1
2022-09-12T02:55:05.633Z,22.1
2022-09-12T03:00:42.852Z,22.1
2022-09-12T03:06:20.412Z,22.1
2022-09-12T03:11:57.831Z,22.1
2022-09-12T03:17:35.314Z,22.1
2022-09-12T03:22:56.432Z,22.1
2022-09-12T03:28:33.579Z,22.1
2022-09-12T03:34:10.621Z,22.1
2022-09-12T03:39:51.476Z,22.1
2022-09-12T03:45:29.076Z,22
2022-09-12T03:51:06.250Z,22
2022-09-12T03:56:43.049Z,22
2022-09-12T04:02:21.602Z,22
2022-09-12T04:07:59.015Z,22
2022-09-12T04:13:05.915Z,22
2022-09-12T04:18:44.173Z,22
2022-09-12T04:24:22.037Z,22
2022-09-12T04:29:44.403Z,21.9
2022-09-12T04:35:21.880Z,21.9
2022-09-12T04:40:58.888Z,21.9
2022-09-12T04:46:35.968Z,21.9
2022-09-12T04:52:16.601Z,21.9
2022-09-12T04:57:54.403Z,21.9
2022-09-12T05:03:30.727Z,21.9
2022-09-12T05:09:11.764Z,21.9
2022-09-12T05:15:19.557Z,21.9
2022-09-12T05:20:44.280Z,21.9
2022-09-12T05:26:22.409Z,21.9
2022-09-12T05:32:00.156Z,21.9
2022-09-12T05:37:36.877Z,21.9
2022-09-12T05:43:19.410Z,21.9
2022-09-12T05:48:57.453Z,21.9
2022-09-12T05:54:34.213Z,21.9
2022-09-12T06:00:12.025Z,21.9
2022-09-12T06:05:55.151Z,21.9
2022-09-12T06:11:36.234Z,21.9
2022-09-12T06:17:14.730Z,21.9
2022-09-12T06:22:56.300Z,21.9
2022-09-12T06:28:34.128Z,21.9
2022-09-12T06:34:15.697Z,21.9
2022-09-12T06:39:52.429Z,21.9
2022-09-12T06:45:35.280Z,21.8
2022-09-12T06:51:13.840Z,21.8
2022-09-12T06:56:52.161Z,21.8
2022-09-12T07:02:15.243Z,21.8
2022-09-12T07:07:52.486Z,21.8
2022-09-12T07:13:28.907Z,21.8
2022-09-12T07:19:07.333Z,21.8
2022-09-12T07:24:45.604Z,21.8
2022-09-12T07:30:48.843Z,21.8
2022-09-12T07:36:24.780Z,21.8
2022-09-12T07:41:47.791Z,21.8
2022-09-12T07:47:24.772Z,21.8
2022-09-12T07:53:02.767Z,21.8
2022-09-12T07:58:45.278Z,21.8
2022-09-12T08:04:47.181Z,21.8
2022-09-12T08:10:28.452Z,21.8
2022-09-12T08:16:10.181Z,21.8
2022-09-12T08:21:52.594Z,21.8
2022-09-12T08:27:14.934Z,21.8
2022-09-12T08:32:52.946Z,21.8
2022-09-12T08:38:30.586Z,21.8
2022-09-12T08:43:56.042Z,21.8
2022-09-12T08:49:35.502Z,21.8
2022-09-12T08:55:13.429Z,21.8
2022-09-12T09:00:51.321Z,21.8
2022-09-12T09:06:29.992Z,21.8
2022-09-12T09:12:07.183Z,21.8
2022-09-12T09:17:45.191Z,21.8
2022-09-12T09:23:11.883Z,21.8
2022-09-12T09:29:11.186Z,21.8
2022-09-12T09:34:48.129Z,21.8
2022-09-12T09:40:29.396Z,21.8
2022-09-12T09:45:36.478Z,21.8
2022-09-12T09:51:15.778Z,21.8
2022-09-12T09:56:23.326Z,21.8
2022-09-12T10:01:30.952Z,21.8
2022-09-12T10:06:56.797Z,21.8
2022-09-12T10:12:20.244Z,21.8
2022-09-12T10:17:58.472Z,21.8
2022-09-12T10:23:41.463Z,21.8
2022-09-12T10:29:23.572Z,21.8
2022-09-12T10:35:01.130Z,21.8
2022-09-12T10:40:24.041Z,21.8
2022-09-12T10:46:02.421Z,21.8
2022-09-12T10:51:47.247Z,21.8
2022-09-12T10:57:28.751Z,21.8
2022-09-12T11:03:10.735Z,21.8
2022-09-12T11:08:32.842Z,21.8
2022-09-12T11:14:14.553Z,21.8
2022-09-12T11:19:52.714Z,21.8
2022-09-12T11:25:19.386Z,21.8
2022-09-12T11:30:45.199Z,21.8
2022-09-12T11:36:13.312Z,21.8
2022-09-12T11:41:53.385Z,21.8
2022-09-12T11:47:31.764Z,21.8
2022-09-12T11:53:11.713Z,21.8
2022-09-12T11:58:49.370Z,21.8
2022-09-12T12:04:31.873Z,21.8
2022-09-12T12:09:59.179Z,21.8
2022-09-12T12:15:26.458Z,21.8
2022-09-12T12:21:13.343Z,21.8
2022-09-12T12:26:54.445Z,21.8
2022-09-12T12:32:32.644Z,21.8
2022-09-12T12:38:14.859Z,21.8
2022-09-12T12:43:58.106Z,21.8
2022-09-12T12:49:36.015Z,21.8
2022-09-12T12:55:17.824Z,21.8
2022-09-12T13:00:57.393Z,21.9
2022-09-12T13:06:39.708Z,21.9
2022-09-12T13:12:01.954Z,21.9
2022-09-12T13:17:39.444Z,21.9
2022-09-12T13:23:45.651Z,21.9
2022-09-12T13:29:23.037Z,21.8
2022-09-12T13:35:05.136Z,21.9
2022-09-12T13:40:42.487Z,21.9
2022-09-12T13:46:20.338Z,21.9
2022-09-12T13:51:57.889Z,21.9
2022-09-12T13:57:35.544Z,21.9
2022-09-12T14:03:13.680Z,21.9
2022-09-12T14:08:51.565Z,21.9
2022-09-12T14:14:30.461Z,21.9
2022-09-12T14:20:10.344Z,21.9
2022-09-12T14:25:52.252Z,21.9
2022-09-12T14:31:30.064Z,21.9
2022-09-12T14:37:07.994Z,21.9
2022-09-12T14:42:30.666Z,21.9
2022-09-12T14:48:07.894Z,21.9
2022-09-12T14:53:49.105Z,21.9
2022-09-12T14:59:26.504Z,21.9
2022-09-12T15:05:05.696Z,21.9
2022-09-12T15:10:43.633Z,21.9
2022-09-12T15:16:21.003Z,21.9
2022-09-12T15:21:45.388Z,21.9
2022-09-12T15:27:23.985Z,21.9
2022-09-12T15:33:02.284Z,21.9
2022-09-12T15:38:44.092Z,21.9
2022-09-12T15:44:22.061Z,21.9
2022-09-12T15:50:04.306Z,21.9
2022-09-12T15:55:31.625Z,21.9
2022-09-12T16:01:27.629Z,21.9
2022-09-12T16:06:55.675Z,21.9
2022-09-12T16:12:37.081Z,21.9
2022-09-12T16:17:58.444Z,21.9
2022-09-12T16:23:38.262Z,21.9
2022-09-12T16:29:16.791Z,21.9
2022-09-12T16:34:55.076Z,21.9
2022-09-12T16:40:33.251Z,21.9
2022-09-12T16:46:11.794Z,21.9
2022-09-12T16:51:54.856Z,21.9
2022-09-12T16:57:32.998Z,21.9
2022-09-12T17:03:14.281Z,21.9
2022-09-12T17:08:55.608Z,21.9
2022-09-12T17:14:43.966Z,21.9
2022-09-12T17:20:11.637Z,21.9
2022-09-12T17:25:40.118Z,21.9
2022-09-12T17:31:02.677Z,21.9
2022-09-12T17:36:40.115Z,21.9
2022-09-12T17:42:24.262Z,21.9
2022-09-12T17:48:05.347Z,21.9
2022-09-12T17:53:51.070Z,21.9
2022-09-12T17:59:15.485Z,21.9
2022-09-12T18:04:54.572Z,21.9
2022-09-12T18:10:32.375Z,21.9
2022-09-12T18:16:12.320Z,21.9
2022-09-12T18:21:36.043Z,21.9
2022-09-12T18:27:13.565Z,21.9
2022-09-12T18:33:07.367Z,21.9
2022-09-12T18:38:30.191Z,21.9
2022-09-12T18:44:11.822Z,21.9
2022-09-12T18:49:49.973Z,21.9
2022-09-12T18:55:30.337Z,21.9
2022-09-12T19:01:08.160Z,21.9
2022-09-12T19:06:46.124Z,21.9
2022-09-12T19:12:28.061Z,21.9
2022-09-12T19:17:51.314Z,21.8
2022-09-12T19:23:18.560Z,21.8
2022-09-12T19:28:41.744Z,21.8
2022-09-12T19:34:06.092Z,21.8
2022-09-12T19:39:49.646Z,21.8
2022-09-12T19:45:28.141Z,21.8
2022-09-12T19:51:06.363Z,21.8
2022-09-12T19:56:49.295Z,21.8
2022-09-12T20:02:33.048Z,21.8
2022-09-12T20:08:12.973Z,21.8
2022-09-12T20:13:51.083Z,21.8
2022-09-12T20:19:29.028Z,21.8
2022-09-12T20:25:10.000Z,21.8
2022-09-12T20:30:47.947Z,21.8
2022-09-12T20:36:11.005Z,21.8
2022-09-12T20:41:49.071Z,21.8
2022-09-12T20:47:30.325Z,21.8
2022-09-12T20:53:07.918Z,21.8
2022-09-12T20:58:45.019Z,21.8
2022-09-12T21:04:24.015Z,21.8
2022-09-12T21:10:02.329Z,21.8
2022-09-12T21:15:40.076Z,21.8
2022-09-12T21:21:19.960Z,21.8
2022-09-12T21:27:04.103Z,21.8
2022-09-12T21:32:31.520Z,21.8
2022-09-12T21:38:09.237Z,21.8
2022-09-12T21:43:48.039Z,21.8
2022-09-12T21:49:26.129Z,21.8
2022-09-12T21:55:03.812Z,21.7
2022-09-12T22:00:26.354Z,21.8
2022-09-12T22:05:48.342Z,21.7
2022-09-12T22:11:27.447Z,21.7
2022-09-12T22:17:33.771Z,21.7
2022-09-12T22:23:11.162Z,21.7
2022-09-12T22:28:48.236Z,21.7
2022-09-12T22:34:26.613Z,21.7
2022-09-12T22:40:07.508Z,21.7
2022-09-12T22:45:44.842Z,21.7
2022-09-12T22:51:27.545Z,21.7
2022-09-12T22:57:04.762Z,21.7
2022-09-12T23:02:26.987Z,21.7
2022-09-12T23:07:49.707Z,21.6
2022-09-12T23:13:12.972Z,21.6
2022-09-12T23:18:18.714Z,21.7
2022-09-12T23:23:40.967Z,21.7
2022-09-12T23:29:01.955Z,21.6
2022-09-12T23:34:40.424Z,21.6
2022-09-12T23:39:48.093Z,21.6
2022-09-12T23:45:25.185Z,21.6
2022-09-12T23:50:46.732Z,21.6
2022-09-12T23:56:26.196Z,21.6
